sensor_id;sensor_type;location;lat;lon;timestamp;pressure;altitude;pressure_sealevel;temperature;humidity
70338;BME280;57757;53.198;19.646;2022-07-23T00:00:31;100203.23;;;22.00;48.17
70338;BME280;57757;53.198;19.646;2022-07-23T00:03:06;100204.91;;;21.99;48.21
70338;BME280;57757;53.198;19.646;2022-07-23T00:05:34;100206.34;;;21.99;48.21
70338;BME280;57757;53.198;19.646;2022-07-23T00:08:05;100209.11;;;22.00;48.31
70338;BME280;57757;53.198;19.646;2022-07-23T00:10:40;100209.07;;;21.98;48.31
70338;BME280;57757;53.198;19.646;2022-07-23T00:13:08;100207.95;;;21.96;48.34
70338;BME280;57757;53.198;19.646;2022-07-23T00:15:35;100206.05;;;21.95;48.46
70338;BME280;57757;53.198;19.646;2022-07-23T00:18:03;100212.75;;;21.93;48.52
70338;BME280;57757;53.198;19.646;2022-07-23T00:20:30;100211.52;;;21.90;48.67
70338;BME280;57757;53.198;19.646;2022-07-23T00:22:58;100210.43;;;21.88;48.64
70338;BME280;57757;53.198;19.646;2022-07-23T00:25:26;100205.72;;;21.85;48.79
70338;BME280;57757;53.198;19.646;2022-07-23T00:27:58;100206.27;;;21.84;48.79
70338;BME280;57757;53.198;19.646;2022-07-23T00:30:26;100209.35;;;21.83;48.87
70338;BME280;57757;53.198;19.646;2022-07-23T00:32:59;100206.95;;;21.80;48.97
70338;BME280;57757;53.198;19.646;2022-07-23T00:35:29;100204.54;;;21.76;48.93
70338;BME280;57757;53.198;19.646;2022-07-23T00:37:57;100205.92;;;21.72;49.10
70338;BME280;57757;53.198;19.646;2022-07-23T00:40:26;100210.12;;;21.67;49.18
70338;BME280;57757;53.198;19.646;2022-07-23T00:42:54;100210.63;;;21.63;49.24
70338;BME280;57757;53.198;19.646;2022-07-23T00:45:22;100210.91;;;21.59;49.42
70338;BME280;57757;53.198;19.646;2022-07-23T00:47:50;100213.83;;;21.55;49.40
70338;BME280;57757;53.198;19.646;2022-07-23T00:50:19;100213.64;;;21.52;49.62
70338;BME280;57757;53.198;19.646;2022-07-23T00:52:46;100221.06;;;21.53;49.66
70338;BME280;57757;53.198;19.646;2022-07-23T00:55:14;100219.52;;;21.52;49.85
70338;BME280;57757;53.198;19.646;2022-07-23T00:57:42;100216.98;;;21.53;49.89
70338;BME280;57757;53.198;19.646;2022-07-23T01:00:11;100220.42;;;21.54;49.92
70338;BME280;57757;53.198;19.646;2022-07-23T01:02:40;100218.94;;;21.55;50.09
70338;BME280;57757;53.198;19.646;2022-07-23T01:05:08;100219.13;;;21.55;50.17
70338;BME280;57757;53.198;19.646;2022-07-23T01:07:36;100218.32;;;21.54;50.08
70338;BME280;57757;53.198;19.646;2022-07-23T01:10:05;100214.39;;;21.52;50.15
70338;BME280;57757;53.198;19.646;2022-07-23T01:12:53;100216.14;;;21.49;50.18
70338;BME280;57757;53.198;19.646;2022-07-23T01:15:21;100222.25;;;21.45;50.38
70338;BME280;57757;53.198;19.646;2022-07-23T01:17:49;100222.85;;;21.41;50.33
70338;BME280;57757;53.198;19.646;2022-07-23T01:20:17;100225.65;;;21.37;50.50
70338;BME280;57757;53.198;19.646;2022-07-23T01:22:44;100225.06;;;21.32;50.50
70338;BME280;57757;53.198;19.646;2022-07-23T01:25:12;100226.00;;;21.26;50.69
70338;BME280;57757;53.198;19.646;2022-07-23T01:27:40;100224.87;;;21.22;50.75
70338;BME280;57757;53.198;19.646;2022-07-23T01:30:08;100220.44;;;21.20;50.79
70338;BME280;57757;53.198;19.646;2022-07-23T01:32:36;100217.59;;;21.17;50.78
70338;BME280;57757;53.198;19.646;2022-07-23T01:35:04;100212.75;;;21.16;50.88
70338;BME280;57757;53.198;19.646;2022-07-23T01:37:35;100210.27;;;21.13;50.91
70338;BME280;57757;53.198;19.646;2022-07-23T01:40:04;100210.27;;;21.10;51.04
70338;BME280;57757;53.198;19.646;2022-07-23T01:42:32;100205.69;;;21.07;51.25
70338;BME280;57757;53.198;19.646;2022-07-23T01:45:02;100203.83;;;21.03;51.32
70338;BME280;57757;53.198;19.646;2022-07-23T01:47:30;100202.16;;;20.99;51.42
70338;BME280;57757;53.198;19.646;2022-07-23T01:49:57;100201.49;;;20.96;51.42
70338;BME280;57757;53.198;19.646;2022-07-23T01:52:25;100202.61;;;20.92;51.56
70338;BME280;57757;53.198;19.646;2022-07-23T01:54:53;100207.48;;;20.91;51.68
70338;BME280;57757;53.198;19.646;2022-07-23T01:57:20;100199.98;;;20.89;51.65
70338;BME280;57757;53.198;19.646;2022-07-23T01:59:48;100205.36;;;20.88;51.63
70338;BME280;57757;53.198;19.646;2022-07-23T02:02:15;100208.40;;;20.85;51.74
70338;BME280;57757;53.198;19.646;2022-07-23T02:04:43;100217.29;;;20.82;51.87
70338;BME280;57757;53.198;19.646;2022-07-23T02:07:10;100218.93;;;20.78;51.92
70338;BME280;57757;53.198;19.646;2022-07-23T02:09:38;100225.88;;;20.75;51.91
70338;BME280;57757;53.198;19.646;2022-07-23T02:12:05;100222.28;;;20.70;51.99
70338;BME280;57757;53.198;19.646;2022-07-23T02:14:33;100218.64;;;20.66;52.12
70338;BME280;57757;53.198;19.646;2022-07-23T02:17:00;100217.76;;;20.64;52.12
70338;BME280;57757;53.198;19.646;2022-07-23T02:19:28;100220.21;;;20.61;52.35
70338;BME280;57757;53.198;19.646;2022-07-23T02:21:56;100217.77;;;20.58;52.49
70338;BME280;57757;53.198;19.646;2022-07-23T02:24:23;100214.06;;;20.55;52.48
70338;BME280;57757;53.198;19.646;2022-07-23T02:26:51;100210.46;;;20.51;52.47
70338;BME280;57757;53.198;19.646;2022-07-23T02:29:18;100209.02;;;20.45;52.48
70338;BME280;57757;53.198;19.646;2022-07-23T02:31:46;100209.08;;;20.42;52.74
70338;BME280;57757;53.198;19.646;2022-07-23T02:34:14;100200.33;;;20.40;52.77
70338;BME280;57757;53.198;19.646;2022-07-23T02:36:41;100204.17;;;20.38;52.85
70338;BME280;57757;53.198;19.646;2022-07-23T02:39:09;100205.38;;;20.36;52.99
70338;BME280;57757;53.198;19.646;2022-07-23T02:41:36;100204.48;;;20.33;52.98
70338;BME280;57757;53.198;19.646;2022-07-23T02:44:04;100206.84;;;20.30;52.99
70338;BME280;57757;53.198;19.646;2022-07-23T02:46:31;100204.88;;;20.27;53.18
70338;BME280;57757;53.198;19.646;2022-07-23T02:48:59;100204.91;;;20.24;53.30
70338;BME280;57757;53.198;19.646;2022-07-23T02:51:27;100208.29;;;20.21;53.32
70338;BME280;57757;53.198;19.646;2022-07-23T02:53:55;100201.12;;;20.17;53.50
70338;BME280;57757;53.198;19.646;2022-07-23T02:56:22;100205.05;;;20.16;53.63
70338;BME280;57757;53.198;19.646;2022-07-23T02:58:50;100204.90;;;20.15;53.66
70338;BME280;57757;53.198;19.646;2022-07-23T03:01:17;100206.66;;;20.16;53.72
70338;BME280;57757;53.198;19.646;2022-07-23T03:03:47;100204.51;;;20.13;53.89
70338;BME280;57757;53.198;19.646;2022-07-23T03:06:15;100199.80;;;20.13;53.92
70338;BME280;57757;53.198;19.646;2022-07-23T03:08:42;100198.66;;;20.11;54.00
70338;BME280;57757;53.198;19.646;2022-07-23T03:11:10;100194.89;;;20.12;54.03
70338;BME280;57757;53.198;19.646;2022-07-23T03:13:43;100190.74;;;20.11;54.11
70338;BME280;57757;53.198;19.646;2022-07-23T03:16:11;100197.95;;;20.11;54.20
70338;BME280;57757;53.198;19.646;2022-07-23T03:18:39;100190.57;;;20.10;54.26
70338;BME280;57757;53.198;19.646;2022-07-23T03:21:07;100193.08;;;20.10;54.45
70338;BME280;57757;53.198;19.646;2022-07-23T03:23:35;100192.95;;;20.09;54.57
70338;BME280;57757;53.198;19.646;2022-07-23T03:26:03;100193.38;;;20.08;54.49
70338;BME280;57757;53.198;19.646;2022-07-23T03:28:30;100192.98;;;20.08;54.47
70338;BME280;57757;53.198;19.646;2022-07-23T03:30:58;100194.19;;;20.09;54.56
70338;BME280;57757;53.198;19.646;2022-07-23T03:33:26;100191.77;;;20.11;54.65
70338;BME280;57757;53.198;19.646;2022-07-23T03:35:53;100192.86;;;20.13;54.75
70338;BME280;57757;53.198;19.646;2022-07-23T03:38:21;100198.09;;;20.14;54.72
70338;BME280;57757;53.198;19.646;2022-07-23T03:40:50;100195.83;;;20.17;54.76
70338;BME280;57757;53.198;19.646;2022-07-23T03:43:17;100190.08;;;20.18;54.81
70338;BME280;57757;53.198;19.646;2022-07-23T03:45:45;100182.33;;;20.20;54.88
70338;BME280;57757;53.198;19.646;2022-07-23T03:48:12;100185.66;;;20.24;55.05
70338;BME280;57757;53.198;19.646;2022-07-23T03:50:40;100194.96;;;20.28;55.02
70338;BME280;57757;53.198;19.646;2022-07-23T03:53:07;100191.06;;;20.31;55.09
70338;BME280;57757;53.198;19.646;2022-07-23T03:55:35;100188.56;;;20.34;55.10
70338;BME280;57757;53.198;19.646;2022-07-23T03:58:02;100184.58;;;20.38;55.12
70338;BME280;57757;53.198;19.646;2022-07-23T04:00:30;100182.84;;;20.40;55.21
70338;BME280;57757;53.198;19.646;2022-07-23T04:02:57;100182.31;;;20.40;55.25
70338;BME280;57757;53.198;19.646;2022-07-23T04:05:25;100182.86;;;20.40;55.33
70338;BME280;57757;53.198;19.646;2022-07-23T04:07:52;100181.22;;;20.41;55.41
70338;BME280;57757;53.198;19.646;2022-07-23T04:10:20;100192.45;;;20.45;55.57
70338;BME280;57757;53.198;19.646;2022-07-23T04:12:47;100195.81;;;20.47;55.30
70338;BME280;57757;53.198;19.646;2022-07-23T04:15:15;100194.92;;;20.53;55.51
70338;BME280;57757;53.198;19.646;2022-07-23T04:17:42;100196.25;;;20.58;55.41
70338;BME280;57757;53.198;19.646;2022-07-23T04:20:11;100191.12;;;20.63;55.42
70338;BME280;57757;53.198;19.646;2022-07-23T04:22:38;100191.20;;;20.67;55.47
70338;BME280;57757;53.198;19.646;2022-07-23T04:25:06;100197.39;;;20.70;55.61
70338;BME280;57757;53.198;19.646;2022-07-23T04:27:34;100199.90;;;20.69;55.42
70338;BME280;57757;53.198;19.646;2022-07-23T04:30:02;100196.27;;;20.70;55.29
70338;BME280;57757;53.198;19.646;2022-07-23T04:32:29;100203.35;;;20.76;55.59
70338;BME280;57757;53.198;19.646;2022-07-23T04:34:57;100207.96;;;20.81;55.47
70338;BME280;57757;53.198;19.646;2022-07-23T04:37:24;100199.11;;;20.86;55.56
70338;BME280;57757;53.198;19.646;2022-07-23T04:39:52;100193.71;;;20.91;55.77
70338;BME280;57757;53.198;19.646;2022-07-23T04:42:19;100199.58;;;20.96;55.69
70338;BME280;57757;53.198;19.646;2022-07-23T04:44:47;100199.55;;;20.98;55.62
70338;BME280;57757;53.198;19.646;2022-07-23T04:47:14;100187.24;;;21.00;55.57
70338;BME280;57757;53.198;19.646;2022-07-23T04:49:42;100176.41;;;21.04;55.59
70338;BME280;57757;53.198;19.646;2022-07-23T04:52:09;100174.70;;;21.08;55.73
70338;BME280;57757;53.198;19.646;2022-07-23T04:54:37;100173.86;;;21.13;55.75
70338;BME280;57757;53.198;19.646;2022-07-23T04:57:04;100170.70;;;21.18;55.79
70338;BME280;57757;53.198;19.646;2022-07-23T04:59:32;100175.17;;;21.25;55.85
70338;BME280;57757;53.198;19.646;2022-07-23T05:01:59;100174.10;;;21.30;55.72
70338;BME280;57757;53.198;19.646;2022-07-23T05:04:27;100169.85;;;21.35;55.84
70338;BME280;57757;53.198;19.646;2022-07-23T05:06:54;100163.22;;;21.41;55.84
70338;BME280;57757;53.198;19.646;2022-07-23T05:09:22;100164.55;;;21.48;55.62
70338;BME280;57757;53.198;19.646;2022-07-23T05:11:50;100163.80;;;21.54;55.58
70338;BME280;57757;53.198;19.646;2022-07-23T05:14:18;100169.91;;;21.58;55.69
70338;BME280;57757;53.198;19.646;2022-07-23T05:16:45;100170.98;;;21.62;55.52
70338;BME280;57757;53.198;19.646;2022-07-23T05:19:12;100164.63;;;21.67;55.70
70338;BME280;57757;53.198;19.646;2022-07-23T05:21:41;100166.59;;;21.72;55.53
70338;BME280;57757;53.198;19.646;2022-07-23T05:24:09;100168.48;;;21.78;55.53
70338;BME280;57757;53.198;19.646;2022-07-23T05:26:48;100157.23;;;21.84;55.62
70338;BME280;57757;53.198;19.646;2022-07-23T05:29:16;100152.31;;;21.92;55.54
70338;BME280;57757;53.198;19.646;2022-07-23T05:31:45;100152.27;;;22.02;55.50
70338;BME280;57757;53.198;19.646;2022-07-23T05:34:12;100158.29;;;22.10;55.48
70338;BME280;57757;53.198;19.646;2022-07-23T05:36:44;100161.94;;;22.18;55.59
70338;BME280;57757;53.198;19.646;2022-07-23T05:39:12;100169.10;;;22.27;55.57
70338;BME280;57757;53.198;19.646;2022-07-23T05:41:39;100170.44;;;22.35;55.51
70338;BME280;57757;53.198;19.646;2022-07-23T05:44:06;100175.59;;;22.43;55.48
70338;BME280;57757;53.198;19.646;2022-07-23T05:46:34;100172.08;;;22.49;55.34
70338;BME280;57757;53.198;19.646;2022-07-23T05:49:02;100168.77;;;22.53;55.28
70338;BME280;57757;53.198;19.646;2022-07-23T05:51:30;100176.77;;;22.58;55.25
70338;BME280;57757;53.198;19.646;2022-07-23T05:53:58;100176.92;;;22.60;55.10
70338;BME280;57757;53.198;19.646;2022-07-23T05:56:25;100172.38;;;22.64;55.14
70338;BME280;57757;53.198;19.646;2022-07-23T05:58:53;100171.18;;;22.69;55.14
70338;BME280;57757;53.198;19.646;2022-07-23T06:01:20;100163.21;;;22.74;55.24
70338;BME280;57757;53.198;19.646;2022-07-23T06:03:48;100159.82;;;22.78;55.17
70338;BME280;57757;53.198;19.646;2022-07-23T06:06:16;100157.97;;;22.84;55.14
70338;BME280;57757;53.198;19.646;2022-07-23T06:08:43;100156.23;;;22.88;55.04
70338;BME280;57757;53.198;19.646;2022-07-23T06:11:11;100160.33;;;22.91;55.11
70338;BME280;57757;53.198;19.646;2022-07-23T06:13:38;100160.82;;;22.93;55.05
70338;BME280;57757;53.198;19.646;2022-07-23T06:16:06;100158.45;;;22.95;55.08
70338;BME280;57757;53.198;19.646;2022-07-23T06:18:33;100158.25;;;22.99;55.13
70338;BME280;57757;53.198;19.646;2022-07-23T06:21:01;100158.52;;;23.08;55.20
70338;BME280;57757;53.198;19.646;2022-07-23T06:23:32;100154.39;;;23.15;55.05
70338;BME280;57757;53.198;19.646;2022-07-23T06:25:59;100158.14;;;23.22;55.14
70338;BME280;57757;53.198;19.646;2022-07-23T06:28:27;100161.20;;;23.24;54.93
70338;BME280;57757;53.198;19.646;2022-07-23T06:30:54;100168.18;;;23.25;54.92
70338;BME280;57757;53.198;19.646;2022-07-23T06:33:24;100170.89;;;23.31;54.98
70338;BME280;57757;53.198;19.646;2022-07-23T06:35:51;100173.12;;;23.42;55.13
70338;BME280;57757;53.198;19.646;2022-07-23T06:38:19;100171.14;;;23.49;55.05
70338;BME280;57757;53.198;19.646;2022-07-23T06:40:47;100164.56;;;23.56;54.97
70338;BME280;57757;53.198;19.646;2022-07-23T06:43:15;100163.59;;;23.60;54.95
70338;BME280;57757;53.198;19.646;2022-07-23T06:45:42;100166.57;;;23.58;54.88
70338;BME280;57757;53.198;19.646;2022-07-23T06:48:09;100174.67;;;23.59;54.90
70338;BME280;57757;53.198;19.646;2022-07-23T06:50:37;100169.63;;;23.66;54.87
70338;BME280;57757;53.198;19.646;2022-07-23T06:53:05;100173.14;;;23.78;54.97
70338;BME280;57757;53.198;19.646;2022-07-23T06:55:32;100172.95;;;23.87;54.87
70338;BME280;57757;53.198;19.646;2022-07-23T06:58:02;100171.67;;;23.99;54.86
70338;BME280;57757;53.198;19.646;2022-07-23T07:00:30;100169.30;;;24.10;54.65
70338;BME280;57757;53.198;19.646;2022-07-23T07:02:58;100156.98;;;24.20;54.63
70338;BME280;57757;53.198;19.646;2022-07-23T07:05:26;100157.58;;;24.31;54.74
70338;BME280;57757;53.198;19.646;2022-07-23T07:07:55;100153.96;;;24.40;54.49
70338;BME280;57757;53.198;19.646;2022-07-23T07:10:22;100148.09;;;24.47;54.53
70338;BME280;57757;53.198;19.646;2022-07-23T07:12:50;100140.48;;;24.51;54.27
70338;BME280;57757;53.198;19.646;2022-07-23T07:15:17;100143.67;;;24.53;54.15
70338;BME280;57757;53.198;19.646;2022-07-23T07:17:45;100139.31;;;24.50;53.99
70338;BME280;57757;53.198;19.646;2022-07-23T07:20:12;100139.23;;;24.53;54.13
70338;BME280;57757;53.198;19.646;2022-07-23T07:22:40;100141.61;;;24.59;54.19
70338;BME280;57757;53.198;19.646;2022-07-23T07:25:07;100143.22;;;24.64;53.99
70338;BME280;57757;53.198;19.646;2022-07-23T07:27:35;100135.36;;;24.65;53.86
70338;BME280;57757;53.198;19.646;2022-07-23T07:30:05;100139.69;;;24.71;53.96
70338;BME280;57757;53.198;19.646;2022-07-23T07:32:33;100141.66;;;24.77;53.87
70338;BME280;57757;53.198;19.646;2022-07-23T07:35:20;100137.95;;;24.86;53.96
70338;BME280;57757;53.198;19.646;2022-07-23T07:37:48;100132.64;;;24.96;53.88
70338;BME280;57757;53.198;19.646;2022-07-23T07:40:15;100130.88;;;25.06;53.62
70338;BME280;57757;53.198;19.646;2022-07-23T07:42:47;100128.17;;;25.12;53.34
70338;BME280;57757;53.198;19.646;2022-07-23T07:45:15;100128.66;;;25.21;53.28
70338;BME280;57757;53.198;19.646;2022-07-23T07:47:43;100123.25;;;25.31;53.08
70338;BME280;57757;53.198;19.646;2022-07-23T07:50:10;100120.01;;;25.38;52.56
70338;BME280;57757;53.198;19.646;2022-07-23T07:52:39;100122.05;;;25.47;52.40
70338;BME280;57757;53.198;19.646;2022-07-23T07:55:08;100121.56;;;25.55;52.26
70338;BME280;57757;53.198;19.646;2022-07-23T07:57:36;100132.03;;;25.65;52.04
70338;BME280;57757;53.198;19.646;2022-07-23T08:00:06;100136.16;;;25.77;51.56
70338;BME280;57757;53.198;19.646;2022-07-23T08:02:51;100140.71;;;25.88;51.40
70338;BME280;57757;53.198;19.646;2022-07-23T08:05:25;100141.84;;;26.04;51.17
70338;BME280;57757;53.198;19.646;2022-07-23T08:07:56;100145.29;;;26.15;50.91
70338;BME280;57757;53.198;19.646;2022-07-23T08:10:25;100145.48;;;26.25;50.54
70338;BME280;57757;53.198;19.646;2022-07-23T08:12:54;100143.70;;;26.29;50.10
70338;BME280;57757;53.198;19.646;2022-07-23T08:15:25;100142.44;;;26.33;50.03
70338;BME280;57757;53.198;19.646;2022-07-23T08:17:54;100131.86;;;26.42;49.97
70338;BME280;57757;53.198;19.646;2022-07-23T08:20:23;100130.96;;;26.51;49.79
70338;BME280;57757;53.198;19.646;2022-07-23T08:22:54;100125.36;;;26.60;49.71
70338;BME280;57757;53.198;19.646;2022-07-23T08:25:25;100124.04;;;26.69;49.63
70338;BME280;57757;53.198;19.646;2022-07-23T08:27:55;100118.83;;;26.79;49.54
70338;BME280;57757;53.198;19.646;2022-07-23T08:30:23;100113.92;;;26.89;49.39
70338;BME280;57757;53.198;19.646;2022-07-23T08:32:57;100115.84;;;27.00;49.20
70338;BME280;57757;53.198;19.646;2022-07-23T08:35:30;100109.69;;;27.10;48.96
70338;BME280;57757;53.198;19.646;2022-07-23T08:38:01;100112.46;;;27.23;48.71
70338;BME280;57757;53.198;19.646;2022-07-23T08:40:30;100120.40;;;27.40;48.64
70338;BME280;57757;53.198;19.646;2022-07-23T08:42:59;100123.14;;;27.53;48.18
70338;BME280;57757;53.198;19.646;2022-07-23T08:45:27;100124.98;;;27.54;47.82
70338;BME280;57757;53.198;19.646;2022-07-23T08:47:56;100126.02;;;27.60;47.70
70338;BME280;57757;53.198;19.646;2022-07-23T08:50:27;100124.04;;;27.71;47.70
70338;BME280;57757;53.198;19.646;2022-07-23T08:52:55;100115.91;;;27.83;47.36
70338;BME280;57757;53.198;19.646;2022-07-23T08:55:23;100117.90;;;27.81;47.04
70338;BME280;57757;53.198;19.646;2022-07-23T08:57:52;100114.08;;;27.84;46.92
70338;BME280;57757;53.198;19.646;2022-07-23T09:00:22;100109.11;;;27.90;46.87
70338;BME280;57757;53.198;19.646;2022-07-23T09:02:49;100112.36;;;28.03;46.80
70338;BME280;57757;53.198;19.646;2022-07-23T09:05:19;100112.98;;;28.12;46.45
70338;BME280;57757;53.198;19.646;2022-07-23T09:08:03;100106.00;;;28.21;46.32
70338;BME280;57757;53.198;19.646;2022-07-23T09:11:01;100099.06;;;28.33;46.14
70338;BME280;57757;53.198;19.646;2022-07-23T09:16:23;100104.23;;;28.76;45.91
70338;BME280;57757;53.198;19.646;2022-07-23T09:18:49;100108.88;;;28.87;45.41
70338;BME280;57757;53.198;19.646;2022-07-23T09:21:25;100109.48;;;28.91;45.39
70338;BME280;57757;53.198;19.646;2022-07-23T09:36:54;100098.55;;;29.88;44.20
70338;BME280;57757;53.198;19.646;2022-07-23T09:39:28;100089.86;;;29.96;44.02
70338;BME280;57757;53.198;19.646;2022-07-23T09:41:57;100093.90;;;30.12;44.05
70338;BME280;57757;53.198;19.646;2022-07-23T09:44:25;100089.89;;;30.22;43.62
70338;BME280;57757;53.198;19.646;2022-07-23T09:46:58;100090.52;;;30.43;43.75
70338;BME280;57757;53.198;19.646;2022-07-23T09:49:27;100097.81;;;30.65;43.42
70338;BME280;57757;53.198;19.646;2022-07-23T09:51:58;100099.95;;;30.69;42.75
70338;BME280;57757;53.198;19.646;2022-07-23T09:57:01;100093.94;;;30.58;42.76
70338;BME280;57757;53.198;19.646;2022-07-23T09:59:31;100101.12;;;30.73;42.77
70338;BME280;57757;53.198;19.646;2022-07-23T10:02:00;100099.61;;;30.78;42.32
70338;BME280;57757;53.198;19.646;2022-07-23T10:04:30;100092.39;;;30.94;42.38
70338;BME280;57757;53.198;19.646;2022-07-23T10:07:03;100091.28;;;31.25;42.35
70338;BME280;57757;53.198;19.646;2022-07-23T10:09:32;100093.94;;;31.54;42.01
70338;BME280;57757;53.198;19.646;2022-07-23T10:12:03;100095.24;;;31.72;41.69
70338;BME280;57757;53.198;19.646;2022-07-23T10:14:34;100097.92;;;31.79;41.43
70338;BME280;57757;53.198;19.646;2022-07-23T10:17:02;100093.52;;;31.97;41.47
70338;BME280;57757;53.198;19.646;2022-07-23T10:19:32;100087.29;;;32.26;41.29
70338;BME280;57757;53.198;19.646;2022-07-23T10:22:02;100084.42;;;32.52;41.06
70338;BME280;57757;53.198;19.646;2022-07-23T10:30:07;100088.39;;;33.50;40.31
70338;BME280;57757;53.198;19.646;2022-07-23T10:38:27;100088.62;;;33.48;39.18
70338;BME280;57757;53.198;19.646;2022-07-23T10:41:02;100095.04;;;33.61;39.03
70338;BME280;57757;53.198;19.646;2022-07-23T10:43:31;100093.75;;;33.47;38.63
70338;BME280;57757;53.198;19.646;2022-07-23T10:46:22;100088.08;;;33.24;38.45
70338;BME280;57757;53.198;19.646;2022-07-23T10:49:29;100089.34;;;33.46;38.96
70338;BME280;57757;53.198;19.646;2022-07-23T10:54:42;100095.02;;;33.87;38.00
70338;BME280;57757;53.198;19.646;2022-07-23T10:57:11;100091.95;;;33.87;37.92
70338;BME280;57757;53.198;19.646;2022-07-23T11:02:59;100100.80;;;33.37;37.46
70338;BME280;57757;53.198;19.646;2022-07-23T11:05:49;100104.12;;;33.29;37.51
70338;BME280;57757;53.198;19.646;2022-07-23T11:08:20;100106.10;;;32.97;37.22
70338;BME280;57757;53.198;19.646;2022-07-23T11:11:07;100105.05;;;32.60;37.06
70338;BME280;57757;53.198;19.646;2022-07-23T11:13:44;100105.79;;;32.06;36.85
70338;BME280;57757;53.198;19.646;2022-07-23T11:18:58;100103.52;;;31.44;37.32
70338;BME280;57757;53.198;19.646;2022-07-23T11:24:07;100104.73;;;31.09;37.34
70338;BME280;57757;53.198;19.646;2022-07-23T11:34:48;100108.05;;;30.34;37.37
70338;BME280;57757;53.198;19.646;2022-07-23T11:37:38;100112.90;;;30.07;37.25
70338;BME280;57757;53.198;19.646;2022-07-23T11:40:11;100107.40;;;29.83;37.50
70338;BME280;57757;53.198;19.646;2022-07-23T11:42:54;100104.86;;;29.69;37.72
70338;BME280;57757;53.198;19.646;2022-07-23T11:45:24;100107.05;;;29.61;37.62
70338;BME280;57757;53.198;19.646;2022-07-23T11:47:52;100108.66;;;29.50;37.66
70338;BME280;57757;53.198;19.646;2022-07-23T11:50:23;100109.36;;;29.42;37.73
70338;BME280;57757;53.198;19.646;2022-07-23T11:52:53;100114.08;;;29.25;37.71
70338;BME280;57757;53.198;19.646;2022-07-23T11:55:21;100115.17;;;29.13;37.81
70338;BME280;57757;53.198;19.646;2022-07-23T11:57:51;100117.69;;;29.01;37.97
70338;BME280;57757;53.198;19.646;2022-07-23T12:00:22;100117.58;;;28.87;37.94
70338;BME280;57757;53.198;19.646;2022-07-23T12:02:53;100118.02;;;28.77;38.05
70338;BME280;57757;53.198;19.646;2022-07-23T12:05:24;100122.34;;;28.67;38.19
70338;BME280;57757;53.198;19.646;2022-07-23T12:07:53;100119.09;;;28.56;38.23
70338;BME280;57757;53.198;19.646;2022-07-23T12:10:28;100120.23;;;28.49;38.34
70338;BME280;57757;53.198;19.646;2022-07-23T12:12:58;100131.46;;;28.45;38.41
70338;BME280;57757;53.198;19.646;2022-07-23T12:15:30;100133.52;;;28.39;38.35
70338;BME280;57757;53.198;19.646;2022-07-23T12:18:02;100140.16;;;28.32;38.60
70338;BME280;57757;53.198;19.646;2022-07-23T12:20:34;100144.63;;;28.21;38.55
70338;BME280;57757;53.198;19.646;2022-07-23T12:23:06;100149.66;;;28.06;38.61
70338;BME280;57757;53.198;19.646;2022-07-23T12:25:43;100147.85;;;27.84;38.77
70338;BME280;57757;53.198;19.646;2022-07-23T12:28:37;100144.96;;;27.66;39.01
70338;BME280;57757;53.198;19.646;2022-07-23T12:31:05;100147.21;;;27.47;39.19
70338;BME280;57757;53.198;19.646;2022-07-23T12:33:36;100150.59;;;27.31;39.38
70338;BME280;57757;53.198;19.646;2022-07-23T12:36:06;100151.49;;;27.13;39.90
70338;BME280;57757;53.198;19.646;2022-07-23T12:38:50;100148.89;;;26.93;40.39
70338;BME280;57757;53.198;19.646;2022-07-23T12:41:18;100147.44;;;26.68;41.03
70338;BME280;57757;53.198;19.646;2022-07-23T12:43:46;100145.14;;;26.48;41.46
70338;BME280;57757;53.198;19.646;2022-07-23T12:46:16;100128.23;;;26.32;42.01
70338;BME280;57757;53.198;19.646;2022-07-23T12:51:27;100139.95;;;26.01;42.60
70338;BME280;57757;53.198;19.646;2022-07-23T12:54:13;100140.29;;;25.83;42.77
70338;BME280;57757;53.198;19.646;2022-07-23T12:56:45;100143.52;;;25.64;43.21
70338;BME280;57757;53.198;19.646;2022-07-23T12:59:32;100137.88;;;25.43;43.39
70338;BME280;57757;53.198;19.646;2022-07-23T13:02:00;100132.92;;;25.26;43.88
70338;BME280;57757;53.198;19.646;2022-07-23T13:04:30;100137.60;;;25.15;44.12
70338;BME280;57757;53.198;19.646;2022-07-23T13:06:59;100126.14;;;25.08;44.36
70338;BME280;57757;53.198;19.646;2022-07-23T13:09:33;100120.69;;;25.03;44.66
70338;BME280;57757;53.198;19.646;2022-07-23T13:12:09;100124.05;;;24.98;44.93
70338;BME280;57757;53.198;19.646;2022-07-23T13:14:39;100134.21;;;24.94;45.20
70338;BME280;57757;53.198;19.646;2022-07-23T13:17:06;100143.50;;;24.89;45.39
70338;BME280;57757;53.198;19.646;2022-07-23T13:19:34;100146.20;;;24.85;45.71
70338;BME280;57757;53.198;19.646;2022-07-23T13:22:01;100146.97;;;24.79;46.00
70338;BME280;57757;53.198;19.646;2022-07-23T13:24:36;100149.64;;;24.73;46.11
70338;BME280;57757;53.198;19.646;2022-07-23T13:27:06;100152.52;;;24.68;46.26
70338;BME280;57757;53.198;19.646;2022-07-23T13:29:56;100155.02;;;24.66;46.65
70338;BME280;57757;53.198;19.646;2022-07-23T13:32:24;100155.04;;;24.62;46.63
70338;BME280;57757;53.198;19.646;2022-07-23T13:34:52;100166.02;;;24.54;46.72
70338;BME280;57757;53.198;19.646;2022-07-23T13:37:19;100171.46;;;24.44;47.04
70338;BME280;57757;53.198;19.646;2022-07-23T13:39:48;100179.58;;;24.33;47.15
70338;BME280;57757;53.198;19.646;2022-07-23T13:42:16;100180.98;;;24.24;47.48
70338;BME280;57757;53.198;19.646;2022-07-23T13:44:43;100174.67;;;24.12;47.58